Assateague Island Natl Seashore, Maryland
Current Conditions -  °F | °C
As of 11:16 AM on Monday 26 Jan 2015 (Local Time) from KOXB Reporting Station
Broken Clouds Broken Clouds  
Wind Chill:   Ceiling: 600
Heat Index:   Visibility: 7mi
Dew Point:   Wind: 14mph
Humidity: 90%   Direction: 50°NE
Pressure: 29.68"   Gusts: NA
Location:  38.12°N, 75.19°W
Report Text: KOXB 261616Z AUTO 05012KT 7SM BKN006 BKN022 07/06 A2968 RMK AO2 T00720056 TSNO
Loading
Personal Weather Stations






























Interactive Weather Map New forecast layout! Learn more

10-Day Weather Forecast

Advertisements
Track Severe Weather on mobile